Latest Weather Observations for Maroochydore

IDQ60801

Issued at 1:32 pm EST Saturday 4 July 2015 (issued every 30 minutes, with the page automatically refreshed every 10 minutes)

About weather observations | Map of weather stations | Latest weather observations for QLD | Other Formats
Station Details ID: 040861 Name: SUNSHINE COAST AIRPORT Lat: -26.60 Lon: 153.09 Height: 3.3 m
Data from the previous 72 hours. | See also: Recent months at Maroochydore
Date/Time
EST
Temp
°C
App
Temp
°C
Dew
Point
Rel
Hum
%
Delta-T
°C
Wind Press
QNH
hPa
Press
MSL
hPa
Rain
since 9 am
mm
Dir
 
Spd
km/h
Gust
km/h
Spd
kts
Gust
kts
04/01:00pm 20.9 17.8 11.5 55 5.2 S 19 26 10 14 1020.8 - 0.0
04/12:30pm 20.4 18.1 11.6 57 4.9 S 15 22 8 12 1021.2 - 0.0
04/12:00pm 20.1 16.9 11.8 59 4.6 S 20 26 11 14 1021.8 1021.8 0.0
04/11:30am 19.0 16.3 11.8 63 4.0 S 17 22 9 12 1022.5 - 0.0
04/11:00am 18.6 15.3 11.7 64 3.8 S 20 28 11 15 1022.8 - 0.0
04/10:30am 18.3 14.9 11.4 64 3.8 SSW 20 26 11 14 1023.0 - 0.0
04/10:00am 17.5 13.3 11.1 66 3.5 S 24 30 13 16 1023.2 - 0.0
04/09:30am 16.9 13.5 11.2 69 3.1 S 20 26 11 14 1023.6 - 0.0
04/09:00am 16.9 13.7 10.1 64 3.6 SSW 17 24 9 13 1023.4 1023.4 0.0
04/08:30am 16.2 14.0 10.7 70 2.9 WSW 13 20 7 11 1023.2 - 0.0
04/08:00am 15.2 12.8 10.2 72 2.6 SW 13 17 7 9 1023.1 - 0.0
04/07:30am 14.8 11.4 9.0 68 3.0 SSW 17 24 9 13 1022.9 - 0.0
04/07:00am 14.3 10.4 8.5 68 2.9 S 19 26 10 14 1022.8 - 0.0
04/06:30am 14.2 10.6 8.2 67 3.0 SSW 17 24 9 13 1022.4 - 0.0
04/05:30am 14.1 9.3 8.9 71 2.6 S 24 35 13 19 1022.2 - 0.0
04/05:00am 14.3 10.3 8.3 67 3.0 SSW 19 24 10 13 1021.8 - 0.0
04/04:30am 14.3 10.4 8.5 68 2.9 S 19 24 10 13 1021.5 - 0.0
04/04:00am 14.1 11.0 8.9 71 2.6 SSW 15 22 8 12 1021.5 - 0.0
04/03:30am 14.2 10.1 8.6 69 2.8 SSW 20 26 11 14 1021.4 - 0.0
04/03:00am 13.2 10.4 8.7 74 2.2 SW 13 17 7 9 1021.3 1021.3 0.0
04/02:30am 13.2 10.7 9.6 79 1.8 WSW 13 15 7 8 1021.5 - 0.0
04/02:00am 13.7 11.0 9.0 73 2.4 SSW 13 19 7 10 1021.7 - 0.0
04/01:30am 14.1 10.4 9.3 73 2.4 SSW 19 28 10 15 1021.8 - 0.0
04/01:00am 14.2 9.1 9.2 72 2.5 S 26 35 14 19 1022.0 - 0.0
04/12:30am 14.3 10.2 8.5 68 2.9 S 20 26 11 14 1022.2 - 0.0
 
Date/Time
EST
Temp
°C
App
Temp
°C
Dew
Point
Rel
Hum
%
Delta-T
°C
Wind Press
QNH
hPa
Press
MSL
hPa
Rain
since 9 am
mm
Dir
 
Spd
km/h
Gust
km/h
Spd
kts
Gust
kts
03/11:30pm 11.5 8.7 8.5 82 1.5 SW 13 19 7 10 1022.4 - 0.0
03/11:00pm 10.6 8.2 8.5 87 1.0 SW 11 17 6 9 1022.7 - 0.0
03/10:30pm 10.0 7.9 8.4 90 0.8 SW 9 13 5 7 1023.0 - 0.0
03/10:00pm 10.1 8.5 8.7 91 0.7 WSW 7 9 4 5 1023.0 - 0.0
03/09:30pm 10.5 8.2 9.1 91 0.7 WSW 11 13 6 7 1023.1 - 0.0
03/09:00pm 10.8 8.2 9.4 91 0.7 WSW 13 15 7 8 1023.0 1023.0 0.0
03/08:30pm 11.1 9.0 9.7 91 0.7 WSW 11 13 6 7 1022.8 - 0.0
03/08:00pm 10.7 8.7 8.5 86 1.1 WSW 9 11 5 6 1022.7 - 0.0
03/07:30pm 11.9 10.1 9.5 85 1.2 WSW 9 11 5 6 1022.6 - 0.0
03/06:30pm 14.2 12.1 9.8 75 2.3 SW 11 13 6 7 1021.8 - 0.0
03/05:30pm 15.7 12.4 9.6 67 3.2 S 17 24 9 13 1021.2 - 0.0
03/05:00pm 16.5 12.6 9.4 63 3.7 S 20 28 11 15 1020.8 - 0.0
03/04:30pm 17.2 11.7 9.1 59 4.2 S 28 39 15 21 1020.6 - 0.0
03/04:00pm 17.8 12.9 8.6 55 4.7 SSE 24 35 13 19 1020.4 - 0.0
03/03:30pm 18.6 13.7 7.1 47 5.8 S 22 33 12 18 1020.4 - 0.0
03/03:00pm 19.3 15.6 8.0 48 5.8 S 17 19 9 10 1020.3 1020.3 0.0
03/02:30pm 18.8 13.2 7.3 47 5.8 SSE 26 32 14 17 1020.2 - 0.0
03/02:00pm 19.0 14.2 7.4 47 5.9 SSE 22 30 12 16 1020.2 - 0.0
03/01:30pm 19.3 14.7 5.4 40 6.8 S 19 26 10 14 1020.3 - 0.0
03/01:00pm 19.1 14.4 5.2 40 6.8 S 19 26 10 14 1020.6 - 0.0
03/12:30pm 19.4 15.0 6.5 43 6.4 SSW 19 22 10 12 1020.9 - 0.0
03/12:00pm 18.9 14.1 5.4 41 6.6 S 20 30 11 16 1021.3 1021.3 0.0
03/11:30am 18.5 14.2 5.4 42 6.4 S 17 24 9 13 1021.8 - 0.0
03/11:00am 17.2 12.3 4.9 44 5.9 S 20 28 11 15 1022.1 - 0.0
03/10:30am 16.5 10.0 4.9 46 5.5 S 28 35 15 19 1022.3 - 0.0
03/10:00am 15.7 9.8 3.8 45 5.5 S 24 33 13 18 1022.3 - 0.0
03/09:30am 14.8 9.5 3.0 45 5.3 SSW 20 32 11 17 1022.4 - 0.0
03/09:00am 14.1 8.1 3.3 48 4.8 SSW 24 35 13 19 1022.3 1022.3 0.0
03/08:30am 12.9 6.8 2.5 49 4.5 SSW 24 37 13 20 1021.8 - 0.0
03/08:00am 12.3 5.8 2.7 52 4.2 SSW 26 35 14 19 1021.3 - 0.0
03/07:30am 10.9 6.2 3.2 59 3.4 SSW 17 28 9 15 1021.1 - 0.0
03/07:00am 9.0 4.7 3.4 68 2.4 SW 15 20 8 11 1021.0 - 0.0
03/06:30am 8.5 4.2 3.4 70 2.2 SW 15 22 8 12 1020.6 - 0.0
03/06:00am 8.7 4.4 3.3 69 2.3 SW 15 20 8 11 1020.4 1020.4 0.0
03/05:30am 8.8 4.5 3.2 68 2.4 SW 15 20 8 11 1019.9 - 0.0
03/05:00am 8.8 4.2 3.6 70 2.2 SW 17 22 9 12 1019.4 - 0.0
03/04:30am 7.4 3.6 3.8 78 1.5 SW 13 19 7 10 1019.0 - 0.0
03/04:00am 7.2 3.7 3.4 77 1.6 WSW 11 13 6 7 1019.2 - 0.0
03/03:30am 7.3 3.4 3.5 77 1.6 WSW 13 17 7 9 1019.0 - 0.0
03/03:00am 7.4 4.2 3.1 74 1.8 W 9 11 5 6 1018.9 1018.9 0.0
03/02:30am 8.3 4.4 3.4 71 2.1 SW 13 19 7 10 1018.8 - 0.0
03/02:00am 8.6 4.7 3.2 69 2.3 SW 13 15 7 8 1018.8 - 0.0
03/01:30am 10.3 5.2 3.1 61 3.1 WSW 19 26 10 14 1019.0 - 0.0
03/01:00am 10.2 4.1 3.0 61 3.1 SW 24 32 13 17 1019.2 - 0.0
03/12:30am 9.5 3.5 3.3 65 2.7 WSW 24 28 13 15 1019.4 - 0.0
03/12:00am 8.9 4.3 3.5 69 2.3 WSW 17 20 9 11 1019.3 1019.3 0.0
 
Date/Time
EST
Temp
°C
App
Temp
°C
Dew
Point
Rel
Hum
%
Delta-T
°C
Wind Press
QNH
hPa
Press
MSL
hPa
Rain
since 9 am
mm
Dir
 
Spd
km/h
Gust
km/h
Spd
kts
Gust
kts
02/11:30pm 8.2 4.0 4.0 75 1.8 WSW 15 17 8 9 1019.3 - 0.0
02/11:00pm 6.8 3.3 3.6 80 1.4 W 11 13 6 7 1019.4 - 0.0
02/10:30pm 6.8 4.1 3.9 82 1.2 WNW 7 9 4 5 1019.5 - 0.0
02/10:00pm 7.6 4.0 4.9 83 1.2 W 13 15 7 8 1019.5 - 0.0
02/09:30pm 6.8 3.4 5.7 93 0.5 WNW 13 15 7 8 1019.4 - 0.0
02/09:00pm 7.4 4.8 6.2 92 0.5 W 9 11 5 6 1019.3 1019.3 0.0
02/08:30pm 7.6 5.4 6.4 92 0.5 N 7 9 4 5 1019.3 - 0.0
02/08:00pm 8.1 6.0 5.6 84 1.1 NNW 6 9 3 5 1019.3 - 0.0
02/07:30pm 10.3 7.1 7.0 80 1.6 W 13 15 7 8 1019.0 - 0.0
02/07:00pm 10.7 7.7 5.9 72 2.2 WSW 11 15 6 8 1018.9 - 0.0
02/06:30pm 12.7 9.6 5.6 62 3.3 WSW 11 13 6 7 1019.1 - 0.0
02/06:00pm 14.5 10.4 6.1 57 4.0 W 17 28 9 15 1018.7 1018.7 0.0
02/05:30pm 13.5 10.7 6.8 64 3.2 W 11 15 6 8 1018.4 - 0.0
02/05:00pm 15.2 11.5 6.5 56 4.2 WSW 15 20 8 11 1018.4 - 0.0
02/04:30pm 16.5 13.2 6.6 52 4.9 SW 13 17 7 9 1018.3 - 0.0
02/04:00pm 17.5 12.7 5.4 45 5.8 WSW 20 28 11 15 1018.1 - 0.0
02/03:30pm 18.4 14.6 7.5 49 5.5 WSW 17 22 9 12 1018.1 - 0.0
02/03:00pm 19.4 14.6 7.5 46 6.1 WSW 22 32 12 17 1017.9 1017.9 0.0
02/02:30pm 19.7 16.0 7.8 46 6.1 SW 17 20 9 11 1017.7 - 0.0
02/02:00pm 20.9 17.3 8.2 44 6.6 W 17 24 9 13 1017.8 - 0.0
02/01:30pm 21.2 19.2 8.5 44 6.7 WSW 9 15 5 8 1018.0 - 0.0
02/01:00pm 20.3 16.8 8.6 47 6.1 W 17 22 9 12 1018.5 - 0.0
02/12:30pm 21.0 18.2 9.9 49 6.0 WSW 15 20 8 11 1018.8 - 0.0
02/12:00pm 20.8 18.5 10.6 52 5.5 WSW 13 19 7 10 1019.4 1019.4 0.0
02/11:30am 20.1 17.1 10.8 55 5.1 SW 17 22 9 12 1020.3 - 0.0
02/11:00am 19.7 16.7 10.7 56 4.9 SW 17 24 9 13 1020.7 - 0.0
02/10:30am 19.2 17.1 12.5 65 3.7 WSW 15 20 8 11 1021.1 - 0.0
02/10:00am 17.7 15.4 11.9 69 3.2 WSW 15 20 8 11 1022.0 - 0.0
02/09:30am 16.1 15.4 13.2 83 1.6 W 9 13 5 7 1022.0 - 0.0
02/09:00am 15.0 14.0 13.4 90 0.9 W 11 13 6 7 1021.5 1021.5 2.0
02/08:30am 14.1 13.4 13.3 95 0.4 WNW 9 13 5 7 1021.6 - 2.0
02/08:00am 12.2 11.0 11.7 97 0.3 WNW 9 11 5 6 1021.1 - 2.0
02/07:30am 10.4 8.8 10.1 98 0.2 W 9 11 5 6 1020.9 - 2.0
02/07:00am 8.9 6.5 8.5 97 0.2 W 11 13 6 7 1020.8 - 2.0
02/06:30am 8.5 6.7 8.1 97 0.2 W 7 9 4 5 1020.6 - 2.0
02/06:00am 8.5 6.0 8.1 97 0.2 W 11 13 6 7 1020.3 1020.3 2.0
02/05:30am 8.7 6.6 8.3 97 0.2 WNW 9 11 5 6 1020.2 - 2.0
02/05:00am 8.8 6.3 8.4 97 0.2 W 11 13 6 7 1020.2 - 1.8
02/04:30am 8.8 6.7 8.4 97 0.2 W 9 9 5 5 1020.0 - 1.8
02/04:00am 9.3 9.0 8.8 97 0.2 CALM 0 6 0 3 1020.3 - 1.8
02/03:30am 9.2 7.8 8.7 97 0.2 W 6 9 3 5 1020.3 - 1.8
02/03:00am 9.6 7.7 9.1 97 0.2 W 9 11 5 6 1020.3 1020.3 1.8
02/02:30am 9.6 7.3 9.1 97 0.2 W 11 11 6 6 1020.3 - 1.8
02/02:00am 9.8 7.9 9.2 96 0.3 W 9 11 5 6 1020.6 - 1.8
02/01:41am 9.8 8.5 9.2 96 0.3 W 6 7 3 4 1020.7 - 1.8
02/01:30am 10.1 8.9 9.5 96 0.3 W 6 9 3 5 1020.8 - 1.8
02/01:23am 9.9 8.1 9.3 96 0.3 W 9 11 5 6 1020.8 - 1.8
02/01:00am 10.7 9.4 10.1 96 0.3 WSW 7 9 4 5 1021.1 - 1.8
02/12:44am 10.7 9.6 10.1 96 0.3 W 6 9 3 5 1021.3 - 1.8
02/12:30am 10.8 9.2 10.2 96 0.3 W 9 11 5 6 1021.4 - 1.8
02/12:26am 10.8 9.2 10.2 96 0.3 WNW 9 11 5 6 1021.4 - 1.8
02/12:00am 11.0 9.1 10.4 96 0.3 W 11 13 6 7 1021.4 1021.4 1.8
 
Date/Time
EST
Temp
°C
App
Temp
°C
Dew
Point
Rel
Hum
%
Delta-T
°C
Wind Press
QNH
hPa
Press
MSL
hPa
Rain
since 9 am
mm
Dir
 
Spd
km/h
Gust
km/h
Spd
kts
Gust
kts
01/11:30pm 11.1 9.9 10.3 95 0.4 W 7 9 4 5 1021.6 - 1.8
01/11:21pm 11.5 10.4 10.7 95 0.4 W 7 9 4 5 1021.7 - 1.8
01/11:00pm 11.8 10.8 11.0 95 0.4 W 7 9 4 5 1021.9 - 1.8
01/10:51pm 11.7 10.3 10.9 95 0.4 W 9 9 5 5 1022.0 - 1.6
01/10:30pm 12.8 12.7 12.0 95 0.4 SW 4 7 2 4 1022.1 - 1.6
01/10:00pm 13.4 11.8 12.9 97 0.3 SW 13 17 7 9 1022.3 - 1.6
01/09:30pm 13.6 13.2 13.1 97 0.3 SW 7 11 4 6 1022.3 - 1.6
01/09:24pm 13.8 13.7 13.3 97 0.3 SSW 6 9 3 5 1022.4 - 1.6
01/09:00pm 13.9 13.8 13.3 96 0.3 WSW 6 9 3 5 1022.2 1022.2 1.6
01/08:30pm 13.9 14.9 13.3 96 0.3 CALM 0 0 0 0 1022.1 - 1.6
01/08:19pm 13.8 14.0 13.2 96 0.3 SW 4 7 2 4 1022.1 - 1.6
01/08:00pm 13.8 13.1 13.2 96 0.3 W 9 11 5 6 1021.9 - 1.6
01/07:30pm 14.3 14.0 13.3 94 0.6 W 7 9 4 5 1021.5 - 1.6
01/07:26pm 14.3 14.0 13.3 94 0.6 W 7 9 4 5 1021.5 - 1.6
01/07:00pm 14.4 14.1 13.3 93 0.6 WNW 7 9 4 5 1021.2 - 1.6
01/06:58pm 14.6 14.4 13.5 93 0.6 WNW 7 9 4 5 1021.2 - 1.6
01/06:30pm 14.6 14.2 13.1 91 0.8 WNW 7 11 4 6 1021.2 - 1.6
01/06:00pm 15.3 16.1 13.8 91 0.8 ENE 2 11 1 6 1021.0 1021.0 1.6
01/05:30pm 16.5 17.9 14.5 88 1.1 CALM 0 0 0 0 1020.8 - 1.6
01/05:00pm 18.0 19.3 14.1 78 2.2 CALM 0 0 0 0 1020.7 - 1.6
01/04:30pm 20.1 20.5 14.7 71 3.2 E 6 7 3 4 1020.6 - 1.6
01/04:00pm 20.6 21.0 15.2 71 3.2 E 7 9 4 5 1020.5 - 1.6
01/03:30pm 20.5 20.1 15.3 72 3.1 ESE 11 13 6 7 1020.5 - 1.6
01/03:00pm 21.1 20.7 16.1 73 3.0 ESE 13 19 7 10 1020.6 1020.6 1.6
01/02:30pm 20.5 19.5 15.7 74 2.9 ESE 15 19 8 10 1020.7 - 1.6
01/02:00pm 19.7 19.7 16.3 81 2.0 ESE 11 13 6 7 1021.0 - 1.6
01/01:38pm 18.8 19.1 16.0 84 1.7 E 9 11 5 6 1021.1 - 1.6

Other Formats:

Comma delimited format used in spreadsheet applications
http://www.bom.gov.au/fwo/IDQ60801/IDQ60801.94569.axf

JavaScript Object Notation format (JSON) in row-major order
http://www.bom.gov.au/fwo/IDQ60801/IDQ60801.94569.json